createdAt,value
2022-09-23T08:29:04.651Z,4.83
2022-09-23T08:31:08.429Z,4.65
2022-09-23T08:33:12.381Z,5.35
2022-09-23T08:35:14.809Z,5.43
2022-09-23T08:37:17.464Z,5.22
2022-09-23T08:39:20.845Z,4.90
2022-09-23T08:41:34.983Z,4.70
2022-09-23T08:43:38.276Z,5.65
2022-09-23T08:45:42.222Z,4.50
2022-09-23T08:47:52.168Z,5.28
2022-09-23T08:50:04.857Z,5.03
2022-09-23T08:52:17.400Z,6.60
2022-09-23T08:54:19.783Z,7.43
2022-09-23T08:56:24.054Z,4.65
2022-09-23T08:58:44.700Z,4.20
2022-09-23T09:01:17.774Z,4.28
2022-09-23T09:03:24.675Z,4.60
2022-09-23T09:05:29.051Z,4.60
2022-09-23T09:07:37.056Z,5.03
2022-09-23T09:09:47.599Z,3.92
2022-09-23T09:11:56.118Z,4.65
2022-09-23T09:14:22.523Z,5.22
2022-09-23T09:16:58.838Z,4.18
2022-09-23T09:19:02.534Z,5.15
2022-09-23T09:21:14.312Z,5.10
2022-09-23T09:23:31.944Z,4.68
2022-09-23T09:25:50.928Z,4.28
2022-09-23T09:27:55.911Z,5.80
2022-09-23T09:30:01.356Z,6.18
2022-09-23T09:32:43.999Z,5.12
2022-09-23T09:34:55.989Z,4.50
2022-09-23T09:37:20.750Z,5.07
2022-09-23T09:39:26.099Z,5.95
2022-09-23T09:41:31.565Z,5.35
2022-09-23T09:43:35.386Z,5.37
2022-09-23T09:46:13.280Z,4.85
2022-09-23T09:48:17.985Z,5.25
2022-09-23T09:50:43.790Z,4.35
2022-09-23T09:52:46.023Z,4.25
2022-09-23T09:54:51.047Z,4.07
2022-09-23T09:56:54.504Z,5.22
2022-09-23T09:59:08.181Z,4.85
2022-09-23T10:01:23.833Z,4.53
2022-09-23T10:03:33.722Z,4.80
2022-09-23T10:05:45.190Z,5.22
2022-09-23T10:07:48.611Z,4.62
2022-09-23T10:09:51.921Z,5.03
2022-09-23T10:12:18.717Z,4.50
2022-09-23T10:14:21.157Z,6.37
2022-09-23T10:16:23.876Z,5.20
2022-09-23T10:18:37.467Z,4.75
2022-09-23T10:20:40.145Z,4.68
2022-09-23T10:22:43.340Z,5.03
2022-09-23T10:24:52.681Z,4.30
2022-09-23T10:27:02.697Z,4.43
2022-09-23T10:29:26.330Z,5.20
2022-09-23T10:31:33.704Z,4.35
2022-09-23T10:33:49.985Z,4.30
2022-09-23T10:35:57.258Z,4.93
2022-09-23T10:38:00.618Z,4.45
2022-09-23T10:40:33.749Z,4.53
2022-09-23T10:43:32.114Z,4.10
2022-09-23T10:45:58.263Z,4.15
2022-09-23T10:48:06.921Z,4.95
2022-09-23T10:50:42.034Z,5.28
2022-09-23T10:52:47.026Z,4.35
2022-09-23T10:55:15.316Z,3.45
2022-09-23T10:57:53.229Z,3.83
2022-09-23T11:00:25.168Z,4.45
2022-09-23T11:02:39.503Z,4.30
2022-09-23T11:04:54.829Z,4.68
2022-09-23T11:07:22.985Z,4.70
2022-09-23T11:10:02.914Z,4.03
2022-09-23T11:12:24.184Z,3.83
2022-09-23T11:16:29.343Z,4.82
2022-09-23T11:18:47.217Z,4.60
2022-09-23T11:21:26.801Z,3.80
2022-09-23T11:23:57.601Z,3.85
2022-09-23T11:28:20.325Z,3.97
2022-09-23T11:30:31.043Z,3.67
2022-09-23T11:32:42.817Z,3.72
2022-09-23T11:35:48.554Z,3.70
2022-09-23T11:38:05.472Z,4.30
2022-09-23T11:40:31.306Z,3.42
2022-09-23T11:42:40.587Z,3.70
2022-09-23T11:44:50.052Z,3.87
2022-09-23T11:47:14.071Z,2.95
2022-09-23T11:49:24.790Z,3.60
2022-09-23T11:52:02.617Z,2.97
2022-09-23T11:54:28.639Z,3.40
2022-09-23T11:56:57.052Z,3.20
2022-09-23T11:59:40.716Z,2.87
2022-09-23T12:01:55.404Z,3.40
2022-09-23T12:04:25.845Z,2.90
2022-09-23T12:06:40.041Z,3.42
2022-09-23T12:08:42.260Z,3.05
2022-09-23T12:10:58.622Z,4.12
2022-09-23T12:13:13.187Z,4.18
2022-09-23T12:15:59.183Z,3.87
2022-09-23T12:18:25.063Z,3.30
2022-09-23T12:20:36.377Z,2.83
2022-09-23T12:23:16.191Z,3.20
2022-09-23T12:25:35.817Z,3.25
2022-09-23T12:27:45.697Z,3.42
2022-09-23T12:29:56.243Z,3.15
2022-09-23T12:31:59.792Z,2.90
2022-09-23T12:34:25.550Z,3.47
2022-09-23T12:36:36.817Z,2.87
2022-09-23T12:38:39.520Z,3.30
2022-09-23T12:40:43.676Z,4.40
2022-09-23T12:42:47.791Z,4.20
2022-09-23T12:44:50.685Z,3.83
2022-09-23T12:47:14.756Z,4.43
2022-09-23T12:49:29.096Z,3.60
2022-09-23T12:51:36.168Z,4.20
2022-09-23T12:53:38.329Z,3.20
2022-09-23T12:55:41.561Z,3.47
2022-09-23T12:57:44.139Z,2.95
2022-09-23T12:59:59.031Z,3.37
2022-09-23T13:02:29.717Z,3.83
2022-09-23T13:05:10.043Z,3.75
2022-09-23T13:07:16.728Z,4.73
2022-09-23T13:12:39.478Z,6.43
2022-09-23T13:14:46.469Z,4.20
2022-09-23T13:16:49.962Z,3.70
2022-09-23T13:18:55.542Z,4.37
2022-09-23T13:20:58.011Z,4.05
2022-09-23T13:23:06.096Z,3.42
2022-09-23T13:25:20.629Z,3.50
2022-09-23T13:27:34.255Z,3.58
2022-09-23T13:29:58.371Z,4.53
2022-09-23T13:32:02.024Z,3.85
2022-09-23T13:34:07.849Z,4.30
2022-09-23T13:36:17.185Z,3.72
2022-09-23T13:38:28.134Z,3.97
2022-09-23T13:40:31.740Z,3.35
2022-09-23T13:42:37.870Z,3.10
2022-09-23T13:44:40.860Z,4.32
2022-09-23T13:46:48.491Z,3.10
2022-09-23T13:48:55.205Z,2.95
2022-09-23T13:50:57.989Z,3.10
2022-09-23T13:53:06.095Z,3.22
2022-09-23T13:55:28.604Z,3.17
2022-09-23T13:57:32.376Z,2.83
2022-09-23T13:59:41.395Z,3.08
2022-09-23T14:01:43.666Z,2.60
2022-09-23T14:03:46.331Z,2.80
2022-09-23T14:05:49.396Z,3.25
2022-09-23T14:07:53.604Z,3.85
2022-09-23T14:09:56.378Z,3.40
2022-09-23T14:12:01.112Z,3.55
2022-09-23T14:14:07.529Z,3.60
2022-09-23T14:16:15.050Z,3.78
2022-09-23T14:18:27.431Z,3.40
2022-09-23T14:20:29.819Z,4.47
2022-09-23T14:22:32.393Z,2.92
2022-09-23T14:24:36.955Z,3.25
2022-09-23T14:26:41.671Z,3.28
2022-09-23T14:28:44.586Z,3.90
2022-09-23T14:30:48.099Z,4.62
2022-09-23T14:32:51.232Z,4.32
2022-09-23T14:34:59.500Z,3.12
2022-09-23T14:37:34.065Z,3.60
2022-09-23T14:39:36.819Z,3.60
2022-09-23T14:41:45.679Z,3.12
2022-09-23T14:43:49.798Z,2.90
2022-09-23T14:45:59.413Z,3.78
2022-09-23T14:48:34.971Z,3.57
2022-09-23T14:50:39.440Z,3.17
2022-09-23T14:52:52.323Z,3.97
2022-09-23T14:54:54.896Z,3.42
2022-09-23T14:56:57.789Z,3.40
2022-09-23T14:59:00.740Z,3.28
2022-09-23T15:01:27.971Z,2.78
2022-09-23T15:03:30.862Z,3.30
2022-09-23T15:05:46.302Z,3.70
2022-09-23T15:07:52.018Z,7.95
2022-09-23T15:09:54.963Z,3.20
2022-09-23T15:12:06.864Z,3.47
2022-09-23T15:14:36.074Z,8.98
2022-09-23T15:16:33.118Z,3.72
2022-09-23T15:18:38.464Z,2.83
2022-09-23T15:20:44.314Z,3.33
2022-09-23T15:22:53.925Z,3.87
2022-09-23T15:25:17.312Z,3.75
2022-09-23T15:27:30.983Z,2.92
2022-09-23T15:29:33.733Z,3.05
2022-09-23T15:31:37.378Z,3.22
2022-09-23T15:33:40.546Z,2.65
2022-09-23T15:35:48.480Z,4.30
2022-09-23T15:37:51.638Z,2.22
2022-09-23T15:39:54.212Z,2.50
2022-09-23T15:41:57.616Z,2.78
2022-09-23T15:44:11.513Z,3.90
2022-09-23T15:46:19.313Z,2.55
2022-09-23T15:48:29.234Z,9.15
2022-09-23T15:50:34.127Z,4.87
2022-09-23T15:52:37.149Z,2.42
2022-09-23T15:54:39.944Z,2.53
2022-09-23T15:56:42.191Z,2.58
2022-09-23T15:58:44.666Z,2.37
2022-09-23T16:00:56.086Z,2.50
2022-09-23T16:02:58.999Z,2.60
2022-09-23T16:05:07.691Z,2.40
2022-09-23T16:07:17.120Z,2.37
2022-09-23T16:09:19.697Z,2.47
2022-09-23T16:11:25.483Z,2.65
2022-09-23T16:13:27.778Z,2.97
2022-09-23T16:15:33.428Z,3.22
2022-09-23T16:17:37.778Z,2.53
2022-09-23T16:19:40.074Z,2.60
2022-09-23T16:21:44.030Z,3.10
2022-09-23T16:23:49.309Z,6.22
2022-09-23T16:25:51.755Z,2.85
2022-09-23T16:27:55.693Z,2.90
2022-09-23T16:29:57.976Z,2.58
2022-09-23T16:32:01.138Z,7.28
2022-09-23T16:34:03.734Z,5.37
2022-09-23T16:36:09.833Z,3.05
2022-09-23T16:38:12.051Z,3.35
2022-09-23T16:40:16.707Z,3.72
2022-09-23T16:42:18.966Z,2.92
2022-09-23T16:44:21.413Z,3.58
2022-09-23T16:46:24.368Z,2.78
2022-09-23T16:48:26.655Z,3.15
2022-09-23T16:50:29.616Z,2.75
2022-09-23T16:52:32.105Z,3.17
2022-09-23T16:54:37.439Z,2.92
2022-09-23T16:56:44.303Z,4.40
2022-09-23T16:58:49.368Z,3.03
2022-09-23T17:01:15.833Z,2.95
2022-09-23T17:03:36.669Z,2.62
2022-09-23T17:07:41.287Z,3.00
2022-09-23T17:09:43.690Z,4.07
2022-09-23T17:11:53.019Z,3.05
2022-09-23T17:13:55.295Z,5.68
2022-09-23T17:15:57.747Z,4.57
2022-09-23T17:18:00.499Z,4.53
2022-09-23T17:20:05.506Z,3.80
2022-09-23T17:22:07.746Z,3.80
2022-09-23T17:24:10.299Z,3.50
2022-09-23T17:26:13.261Z,3.58
2022-09-23T17:28:16.029Z,3.78
2022-09-23T17:30:18.847Z,3.65
2022-09-23T17:32:21.278Z,3.47
2022-09-23T17:34:24.135Z,3.80
2022-09-23T17:36:27.384Z,4.43
2022-09-23T17:38:29.856Z,4.25
2022-09-23T17:40:32.098Z,3.62
2022-09-23T17:42:41.074Z,3.60
2022-09-23T17:44:43.263Z,4.32
2022-09-23T17:46:45.558Z,3.85
2022-09-23T17:48:48.639Z,4.80
2022-09-23T17:50:58.831Z,4.20
2022-09-23T17:53:01.078Z,4.62
2022-09-23T17:55:03.908Z,4.22
2022-09-23T17:57:06.234Z,5.03
2022-09-23T17:59:15.527Z,6.25
2022-09-23T18:01:23.981Z,5.93
2022-09-23T18:03:28.481Z,25.33
2022-09-23T18:05:30.961Z,8.13
2022-09-23T18:07:33.176Z,6.07
2022-09-23T18:09:35.689Z,5.50
2022-09-23T18:11:43.969Z,5.87
2022-09-23T18:13:54.929Z,5.95
2022-09-23T18:16:02.626Z,5.82
2022-09-23T18:18:06.126Z,5.62
2022-09-23T18:20:09.006Z,5.28
2022-09-23T18:22:11.704Z,5.07
2022-09-23T18:26:36.711Z,5.30
2022-09-23T18:28:39.676Z,4.90
2022-09-23T18:30:52.650Z,4.60
2022-09-23T18:32:54.848Z,5.40
2022-09-23T18:34:57.856Z,6.35
2022-09-23T18:37:00.118Z,5.18
2022-09-23T18:39:02.430Z,5.53
2022-09-23T18:41:05.307Z,5.80
2022-09-23T18:43:08.574Z,6.40
2022-09-23T18:45:11.924Z,6.12
2022-09-23T18:47:34.369Z,6.05
2022-09-23T18:49:55.137Z,6.03
2022-09-23T18:52:00.780Z,7.30
2022-09-23T18:54:06.451Z,6.03
2022-09-23T18:56:14.598Z,6.22
2022-09-23T18:58:16.854Z,6.70
2022-09-23T19:00:19.886Z,6.35
2022-09-23T19:02:22.111Z,6.25
2022-09-23T19:04:26.207Z,5.68
2022-09-23T19:06:31.296Z,7.05
2022-09-23T19:08:34.848Z,6.20
2022-09-23T19:10:37.062Z,6.03
2022-09-23T19:12:39.569Z,4.82
2022-09-23T19:14:44.706Z,5.43
2022-09-23T19:16:49.061Z,4.87
2022-09-23T19:18:52.200Z,5.45
2022-09-23T19:20:54.791Z,5.22
2022-09-23T19:22:57.008Z,6.05
2022-09-23T19:24:59.832Z,5.65
2022-09-23T19:27:03.389Z,7.15
2022-09-23T19:29:08.321Z,6.22
2022-09-23T19:31:14.015Z,7.15
2022-09-23T19:33:16.330Z,6.00
2022-09-23T19:35:18.623Z,5.50
2022-09-23T19:37:21.307Z,6.15
2022-09-23T19:39:26.334Z,8.20
2022-09-23T19:41:32.342Z,6.87
2022-09-23T19:43:38.663Z,6.97
2022-09-23T19:45:43.023Z,8.32
2022-09-23T19:47:45.302Z,7.57
2022-09-23T19:49:48.695Z,6.70
2022-09-23T19:51:50.994Z,6.37
2022-09-23T19:53:53.511Z,6.80
2022-09-23T19:55:56.471Z,7.28
2022-09-23T19:57:58.671Z,6.62
2022-09-23T20:00:01.218Z,6.50
2022-09-23T20:02:03.809Z,13.02
2022-09-23T20:04:06.451Z,7.00
2022-09-23T20:06:08.818Z,6.60
2022-09-23T20:08:11.123Z,6.70
2022-09-23T20:10:14.160Z,6.78
2022-09-23T20:12:17.691Z,7.60
2022-09-23T20:14:20.139Z,6.60
2022-09-23T20:16:22.965Z,7.85
2022-09-23T20:18:25.568Z,6.65
2022-09-23T20:20:27.885Z,7.68
2022-09-23T20:22:33.591Z,7.87
2022-09-23T20:24:35.957Z,6.35
2022-09-23T20:26:57.075Z,9.93
2022-09-23T20:29:01.360Z,6.78
2022-09-23T20:31:03.653Z,7.07
2022-09-23T20:33:05.890Z,6.62
2022-09-23T20:35:08.855Z,6.25
2022-09-23T20:37:11.273Z,7.28
2022-09-23T20:39:13.625Z,6.80
2022-09-23T20:41:16.444Z,8.02
2022-09-23T20:43:20.300Z,6.68
2022-09-23T20:45:22.504Z,7.15
2022-09-23T20:47:25.121Z,7.50
2022-09-23T20:49:27.569Z,7.35
2022-09-23T20:51:29.871Z,7.50
2022-09-23T20:53:32.737Z,7.97
2022-09-23T20:55:35.158Z,7.00
2022-09-23T20:57:37.407Z,6.78
2022-09-23T20:59:40.703Z,7.95
2022-09-23T21:01:43.336Z,7.60
2022-09-23T21:03:48.277Z,7.07
2022-09-23T21:05:50.812Z,8.43
2022-09-23T21:07:53.217Z,7.72
2022-09-23T21:09:55.429Z,11.30
2022-09-23T21:11:58.041Z,7.30
2022-09-23T21:14:02.568Z,7.78
2022-09-23T21:16:08.320Z,7.97
2022-09-23T21:18:15.023Z,8.38
2022-09-23T21:20:18.593Z,7.90
2022-09-23T21:22:20.774Z,8.20
2022-09-23T21:26:47.384Z,8.20
2022-09-23T21:28:52.052Z,7.78
2022-09-23T21:30:58.540Z,8.18
2022-09-23T21:33:01.933Z,9.95
2022-09-23T21:35:04.305Z,8.57
2022-09-23T21:37:06.912Z,7.85
2022-09-23T21:39:10.542Z,10.15
2022-09-23T21:41:13.143Z,7.07
2022-09-23T21:43:16.688Z,6.40
2022-09-23T21:45:19.204Z,7.07
2022-09-23T21:47:21.449Z,6.80
2022-09-23T21:49:24.003Z,6.70
2022-09-23T21:51:28.525Z,7.53
2022-09-23T21:53:32.671Z,6.45
2022-09-23T21:55:35.180Z,5.75
2022-09-23T21:57:37.686Z,7.03
2022-09-23T21:59:40.385Z,6.35
